sensor_id;sensor_type;location;lat;lon;timestamp;temperature;humidity
11005;DHT22;5555;59.622;16.556;2023-05-18T00:01:09;5.20;99.90
11005;DHT22;5555;59.622;16.556;2023-05-18T00:03:35;5.10;99.90
11005;DHT22;5555;59.622;16.556;2023-05-18T00:06:01;5.10;99.90
11005;DHT22;5555;59.622;16.556;2023-05-18T00:08:29;5.10;99.90
11005;DHT22;5555;59.622;16.556;2023-05-18T00:10:56;5.00;99.90
11005;DHT22;5555;59.622;16.556;2023-05-18T00:13:22;5.00;99.90
11005;DHT22;5555;59.622;16.556;2023-05-18T00:15:47;5.00;99.90
11005;DHT22;5555;59.622;16.556;2023-05-18T00:18:13;5.00;99.90
11005;DHT22;5555;59.622;16.556;2023-05-18T00:20:38;4.90;99.90
11005;DHT22;5555;59.622;16.556;2023-05-18T00:23:04;4.80;99.90
11005;DHT22;5555;59.622;16.556;2023-05-18T00:25:30;4.60;99.90
11005;DHT22;5555;59.622;16.556;2023-05-18T00:27:56;4.50;99.90
11005;DHT22;5555;59.622;16.556;2023-05-18T00:30:21;4.40;99.90
11005;DHT22;5555;59.622;16.556;2023-05-18T00:32:49;4.40;99.90
11005;DHT22;5555;59.622;16.556;2023-05-18T00:35:15;4.30;99.90
11005;DHT22;5555;59.622;16.556;2023-05-18T00:37:41;4.20;99.90
11005;DHT22;5555;59.622;16.556;2023-05-18T00:40:07;4.20;99.90
11005;DHT22;5555;59.622;16.556;2023-05-18T00:42:33;4.10;99.90
11005;DHT22;5555;59.622;16.556;2023-05-18T00:44:59;4.10;99.90
11005;DHT22;5555;59.622;16.556;2023-05-18T00:47:24;4.00;99.90
11005;DHT22;5555;59.622;16.556;2023-05-18T00:49:50;4.10;99.90
11005;DHT22;5555;59.622;16.556;2023-05-18T00:52:16;4.10;99.90
11005;DHT22;5555;59.622;16.556;2023-05-18T00:54:42;4.30;99.90
11005;DHT22;5555;59.622;16.556;2023-05-18T00:57:08;4.40;99.90
11005;DHT22;5555;59.622;16.556;2023-05-18T00:59:34;4.50;99.90
11005;DHT22;5555;59.622;16.556;2023-05-18T01:02:00;4.50;99.90
11005;DHT22;5555;59.622;16.556;2023-05-18T01:04:26;4.50;99.90
11005;DHT22;5555;59.622;16.556;2023-05-18T01:06:54;4.60;99.90
11005;DHT22;5555;59.622;16.556;2023-05-18T01:09:21;4.60;99.90
11005;DHT22;5555;59.622;16.556;2023-05-18T01:12:00;4.50;99.90
11005;DHT22;5555;59.622;16.556;2023-05-18T01:14:51;4.50;99.90
11005;DHT22;5555;59.622;16.556;2023-05-18T01:25:45;4.30;99.90
11005;DHT22;5555;59.622;16.556;2023-05-18T01:28:17;4.10;99.90
11005;DHT22;5555;59.622;16.556;2023-05-18T01:30:45;4.10;99.90
11005;DHT22;5555;59.622;16.556;2023-05-18T01:33:11;4.00;99.90
11005;DHT22;5555;59.622;16.556;2023-05-18T01:35:38;4.00;99.90
11005;DHT22;5555;59.622;16.556;2023-05-18T01:38:26;4.10;99.90
11005;DHT22;5555;59.622;16.556;2023-05-18T01:43:28;4.10;99.90
11005;DHT22;5555;59.622;16.556;2023-05-18T01:46:00;4.10;99.90
11005;DHT22;5555;59.622;16.556;2023-05-18T01:48:27;4.10;99.90
11005;DHT22;5555;59.622;16.556;2023-05-18T01:50:56;4.00;99.90
11005;DHT22;5555;59.622;16.556;2023-05-18T01:53:26;4.00;99.90
11005;DHT22;5555;59.622;16.556;2023-05-18T01:55:56;4.00;99.90
11005;DHT22;5555;59.622;16.556;2023-05-18T01:58:23;4.00;99.90
11005;DHT22;5555;59.622;16.556;2023-05-18T02:00:50;3.90;99.90
11005;DHT22;5555;59.622;16.556;2023-05-18T02:03:16;3.90;99.90
11005;DHT22;5555;59.622;16.556;2023-05-18T02:05:41;3.90;99.90
11005;DHT22;5555;59.622;16.556;2023-05-18T02:08:07;3.90;99.90
11005;DHT22;5555;59.622;16.556;2023-05-18T02:10:33;3.90;99.90
11005;DHT22;5555;59.622;16.556;2023-05-18T02:12:58;3.80;99.90
11005;DHT22;5555;59.622;16.556;2023-05-18T02:15:24;3.80;99.90
11005;DHT22;5555;59.622;16.556;2023-05-18T02:17:49;3.80;99.90
11005;DHT22;5555;59.622;16.556;2023-05-18T02:20:15;3.80;99.90
11005;DHT22;5555;59.622;16.556;2023-05-18T02:22:43;3.90;99.90
11005;DHT22;5555;59.622;16.556;2023-05-18T02:25:10;3.80;99.90
11005;DHT22;5555;59.622;16.556;2023-05-18T02:27:36;3.80;99.90
11005;DHT22;5555;59.622;16.556;2023-05-18T02:30:05;3.70;99.90
11005;DHT22;5555;59.622;16.556;2023-05-18T02:32:34;3.60;99.90
11005;DHT22;5555;59.622;16.556;2023-05-18T02:35:07;3.50;99.90
11005;DHT22;5555;59.622;16.556;2023-05-18T02:37:33;3.40;99.90
11005;DHT22;5555;59.622;16.556;2023-05-18T02:40:01;3.30;99.90
11005;DHT22;5555;59.622;16.556;2023-05-18T02:42:27;3.20;99.90
11005;DHT22;5555;59.622;16.556;2023-05-18T02:44:52;3.20;99.90
11005;DHT22;5555;59.622;16.556;2023-05-18T02:47:18;3.10;99.90
11005;DHT22;5555;59.622;16.556;2023-05-18T02:49:44;3.10;99.90
11005;DHT22;5555;59.622;16.556;2023-05-18T02:52:10;3.10;99.90
11005;DHT22;5555;59.622;16.556;2023-05-18T02:54:35;3.10;99.90
11005;DHT22;5555;59.622;16.556;2023-05-18T02:57:01;3.10;99.90
11005;DHT22;5555;59.622;16.556;2023-05-18T02:59:26;3.20;99.90
11005;DHT22;5555;59.622;16.556;2023-05-18T03:01:52;3.20;99.90
11005;DHT22;5555;59.622;16.556;2023-05-18T03:04:18;3.30;99.90
11005;DHT22;5555;59.622;16.556;2023-05-18T03:06:44;3.30;99.90
11005;DHT22;5555;59.622;16.556;2023-05-18T03:09:11;3.30;99.90
11005;DHT22;5555;59.622;16.556;2023-05-18T03:11:37;3.40;99.90
11005;DHT22;5555;59.622;16.556;2023-05-18T03:14:02;3.40;99.90
11005;DHT22;5555;59.622;16.556;2023-05-18T03:16:28;3.30;99.90
11005;DHT22;5555;59.622;16.556;2023-05-18T03:18:54;3.40;99.90
11005;DHT22;5555;59.622;16.556;2023-05-18T03:21:20;3.40;99.90
11005;DHT22;5555;59.622;16.556;2023-05-18T03:23:46;3.40;99.90
11005;DHT22;5555;59.622;16.556;2023-05-18T03:26:12;3.40;99.90
11005;DHT22;5555;59.622;16.556;2023-05-18T03:28:38;3.40;99.90
11005;DHT22;5555;59.622;16.556;2023-05-18T03:31:04;3.50;99.90
11005;DHT22;5555;59.622;16.556;2023-05-18T03:33:29;3.60;99.90
11005;DHT22;5555;59.622;16.556;2023-05-18T03:35:55;3.60;99.90
11005;DHT22;5555;59.622;16.556;2023-05-18T03:38:21;3.70;99.90
11005;DHT22;5555;59.622;16.556;2023-05-18T03:40:47;3.70;99.90
11005;DHT22;5555;59.622;16.556;2023-05-18T03:43:12;3.70;99.90
11005;DHT22;5555;59.622;16.556;2023-05-18T03:45:38;3.80;99.90
11005;DHT22;5555;59.622;16.556;2023-05-18T03:48:04;3.80;99.90
11005;DHT22;5555;59.622;16.556;2023-05-18T03:50:30;3.90;99.90
11005;DHT22;5555;59.622;16.556;2023-05-18T03:52:55;3.90;99.90
11005;DHT22;5555;59.622;16.556;2023-05-18T03:55:21;4.00;99.90
11005;DHT22;5555;59.622;16.556;2023-05-18T03:57:48;4.00;99.90
11005;DHT22;5555;59.622;16.556;2023-05-18T04:00:14;4.00;99.90
11005;DHT22;5555;59.622;16.556;2023-05-18T04:02:40;4.10;99.90
11005;DHT22;5555;59.622;16.556;2023-05-18T04:05:07;4.10;99.90
11005;DHT22;5555;59.622;16.556;2023-05-18T04:07:32;4.20;99.90
11005;DHT22;5555;59.622;16.556;2023-05-18T04:09:58;4.20;99.90
11005;DHT22;5555;59.622;16.556;2023-05-18T04:12:24;4.30;99.90
11005;DHT22;5555;59.622;16.556;2023-05-18T04:14:49;4.30;99.90
11005;DHT22;5555;59.622;16.556;2023-05-18T04:17:18;4.40;99.90
11005;DHT22;5555;59.622;16.556;2023-05-18T04:19:48;4.40;99.90
11005;DHT22;5555;59.622;16.556;2023-05-18T04:22:14;4.50;99.90
11005;DHT22;5555;59.622;16.556;2023-05-18T04:24:41;4.50;99.90
11005;DHT22;5555;59.622;16.556;2023-05-18T04:27:08;4.60;99.90
11005;DHT22;5555;59.622;16.556;2023-05-18T04:29:34;4.70;99.90
11005;DHT22;5555;59.622;16.556;2023-05-18T04:32:04;4.70;99.90
11005;DHT22;5555;59.622;16.556;2023-05-18T04:34:32;4.80;99.90
11005;DHT22;5555;59.622;16.556;2023-05-18T04:37:00;4.90;99.90
11005;DHT22;5555;59.622;16.556;2023-05-18T04:39:26;5.00;99.90
11005;DHT22;5555;59.622;16.556;2023-05-18T04:41:52;5.20;99.90
11005;DHT22;5555;59.622;16.556;2023-05-18T04:44:31;5.20;99.90
11005;DHT22;5555;59.622;16.556;2023-05-18T04:47:00;5.30;99.90
11005;DHT22;5555;59.622;16.556;2023-05-18T04:49:27;5.40;99.90
11005;DHT22;5555;59.622;16.556;2023-05-18T04:51:54;5.50;99.90
11005;DHT22;5555;59.622;16.556;2023-05-18T04:54:29;5.60;99.90
11005;DHT22;5555;59.622;16.556;2023-05-18T04:56:55;5.70;99.90
11005;DHT22;5555;59.622;16.556;2023-05-18T04:59:22;5.80;99.90
11005;DHT22;5555;59.622;16.556;2023-05-18T05:01:51;5.80;99.90
11005;DHT22;5555;59.622;16.556;2023-05-18T05:04:16;6.00;99.90
11005;DHT22;5555;59.622;16.556;2023-05-18T05:06:42;6.10;99.90
11005;DHT22;5555;59.622;16.556;2023-05-18T05:09:08;6.10;99.90
11005;DHT22;5555;59.622;16.556;2023-05-18T05:11:33;6.20;99.90
11005;DHT22;5555;59.622;16.556;2023-05-18T05:14:03;6.30;99.90
11005;DHT22;5555;59.622;16.556;2023-05-18T05:16:29;6.40;99.90
11005;DHT22;5555;59.622;16.556;2023-05-18T05:18:54;6.50;99.90
11005;DHT22;5555;59.622;16.556;2023-05-18T05:21:20;6.70;99.90
11005;DHT22;5555;59.622;16.556;2023-05-18T05:23:46;6.80;99.90
11005;DHT22;5555;59.622;16.556;2023-05-18T05:26:11;6.80;99.90
11005;DHT22;5555;59.622;16.556;2023-05-18T05:28:37;6.90;99.90
11005;DHT22;5555;59.622;16.556;2023-05-18T05:31:02;6.90;99.90
11005;DHT22;5555;59.622;16.556;2023-05-18T05:33:28;7.10;99.90
11005;DHT22;5555;59.622;16.556;2023-05-18T05:35:54;7.20;99.90
11005;DHT22;5555;59.622;16.556;2023-05-18T05:38:19;7.20;99.90
11005;DHT22;5555;59.622;16.556;2023-05-18T05:40:45;7.30;99.90
11005;DHT22;5555;59.622;16.556;2023-05-18T05:43:11;7.50;99.90
11005;DHT22;5555;59.622;16.556;2023-05-18T05:45:36;7.50;99.90
11005;DHT22;5555;59.622;16.556;2023-05-18T05:48:03;7.40;99.90
11005;DHT22;5555;59.622;16.556;2023-05-18T05:50:28;7.50;99.90
11005;DHT22;5555;59.622;16.556;2023-05-18T05:52:54;7.50;99.90
11005;DHT22;5555;59.622;16.556;2023-05-18T05:55:20;7.70;99.90
11005;DHT22;5555;59.622;16.556;2023-05-18T05:57:46;7.60;99.90
11005;DHT22;5555;59.622;16.556;2023-05-18T06:00:12;7.70;99.90
11005;DHT22;5555;59.622;16.556;2023-05-18T06:02:39;7.80;99.90
11005;DHT22;5555;59.622;16.556;2023-05-18T06:05:05;7.70;99.90
11005;DHT22;5555;59.622;16.556;2023-05-18T06:07:32;7.90;99.90
11005;DHT22;5555;59.622;16.556;2023-05-18T06:09:57;8.00;99.90
11005;DHT22;5555;59.622;16.556;2023-05-18T06:12:23;8.00;99.90
11005;DHT22;5555;59.622;16.556;2023-05-18T06:14:49;8.10;99.90
11005;DHT22;5555;59.622;16.556;2023-05-18T06:17:17;8.20;99.90
11005;DHT22;5555;59.622;16.556;2023-05-18T06:19:42;8.30;99.90
11005;DHT22;5555;59.622;16.556;2023-05-18T06:22:08;8.50;99.90
11005;DHT22;5555;59.622;16.556;2023-05-18T06:24:34;8.50;99.90
11005;DHT22;5555;59.622;16.556;2023-05-18T06:26:59;8.50;99.90
11005;DHT22;5555;59.622;16.556;2023-05-18T06:29:25;8.40;99.90
11005;DHT22;5555;59.622;16.556;2023-05-18T06:31:51;8.50;99.90
11005;DHT22;5555;59.622;16.556;2023-05-18T06:34:16;8.50;99.90
11005;DHT22;5555;59.622;16.556;2023-05-18T06:36:42;8.60;99.90
11005;DHT22;5555;59.622;16.556;2023-05-18T06:39:08;8.80;99.90
11005;DHT22;5555;59.622;16.556;2023-05-18T06:41:34;8.90;99.90
11005;DHT22;5555;59.622;16.556;2023-05-18T06:43:59;8.80;99.70
11005;DHT22;5555;59.622;16.556;2023-05-18T06:46:26;8.90;99.90
11005;DHT22;5555;59.622;16.556;2023-05-18T06:48:53;9.10;99.90
11005;DHT22;5555;59.622;16.556;2023-05-18T06:51:18;9.20;99.20
11005;DHT22;5555;59.622;16.556;2023-05-18T06:53:44;9.20;98.70
11005;DHT22;5555;59.622;16.556;2023-05-18T06:56:10;9.30;98.80
11005;DHT22;5555;59.622;16.556;2023-05-18T06:58:40;9.40;99.30
11005;DHT22;5555;59.622;16.556;2023-05-18T07:01:06;9.50;97.80
11005;DHT22;5555;59.622;16.556;2023-05-18T07:03:31;9.60;97.80
11005;DHT22;5555;59.622;16.556;2023-05-18T07:05:57;9.60;97.60
11005;DHT22;5555;59.622;16.556;2023-05-18T07:08:23;9.60;97.70
11005;DHT22;5555;59.622;16.556;2023-05-18T07:10:50;9.60;98.00
11005;DHT22;5555;59.622;16.556;2023-05-18T07:13:16;9.50;97.90
11005;DHT22;5555;59.622;16.556;2023-05-18T07:15:41;9.80;97.80
11005;DHT22;5555;59.622;16.556;2023-05-18T07:18:07;10.10;98.20
11005;DHT22;5555;59.622;16.556;2023-05-18T07:20:33;10.10;97.60
11005;DHT22;5555;59.622;16.556;2023-05-18T07:22:58;10.30;96.90
11005;DHT22;5555;59.622;16.556;2023-05-18T07:25:24;10.30;96.30
11005;DHT22;5555;59.622;16.556;2023-05-18T07:27:51;10.40;96.00
11005;DHT22;5555;59.622;16.556;2023-05-18T07:30:18;10.50;95.70
11005;DHT22;5555;59.622;16.556;2023-05-18T07:32:44;10.50;93.60
11005;DHT22;5555;59.622;16.556;2023-05-18T07:35:10;10.40;93.60
11005;DHT22;5555;59.622;16.556;2023-05-18T07:37:36;10.50;92.60
11005;DHT22;5555;59.622;16.556;2023-05-18T07:40:02;10.40;91.60
11005;DHT22;5555;59.622;16.556;2023-05-18T07:42:29;10.30;91.70
11005;DHT22;5555;59.622;16.556;2023-05-18T07:44:55;10.30;92.20
11005;DHT22;5555;59.622;16.556;2023-05-18T07:47:21;10.30;91.50
11005;DHT22;5555;59.622;16.556;2023-05-18T07:49:47;10.50;91.80
11005;DHT22;5555;59.622;16.556;2023-05-18T07:52:13;10.70;93.10
11005;DHT22;5555;59.622;16.556;2023-05-18T07:54:39;10.80;91.30
11005;DHT22;5555;59.622;16.556;2023-05-18T07:57:04;10.80;92.10
11005;DHT22;5555;59.622;16.556;2023-05-18T07:59:31;10.80;92.20
11005;DHT22;5555;59.622;16.556;2023-05-18T08:01:56;10.80;92.50
11005;DHT22;5555;59.622;16.556;2023-05-18T08:04:23;11.00;92.00
11005;DHT22;5555;59.622;16.556;2023-05-18T08:06:49;10.80;91.30
11005;DHT22;5555;59.622;16.556;2023-05-18T08:09:14;10.90;92.40
11005;DHT22;5555;59.622;16.556;2023-05-18T08:11:41;11.10;91.40
11005;DHT22;5555;59.622;16.556;2023-05-18T08:14:07;11.30;92.60
11005;DHT22;5555;59.622;16.556;2023-05-18T08:16:33;11.70;91.70
11005;DHT22;5555;59.622;16.556;2023-05-18T08:19:02;11.60;91.40
11005;DHT22;5555;59.622;16.556;2023-05-18T08:21:27;11.90;91.60
11005;DHT22;5555;59.622;16.556;2023-05-18T08:23:54;11.60;90.60
11005;DHT22;5555;59.622;16.556;2023-05-18T08:26:20;11.60;91.10
11005;DHT22;5555;59.622;16.556;2023-05-18T08:28:46;11.40;91.30
11005;DHT22;5555;59.622;16.556;2023-05-18T08:31:13;11.60;93.20
11005;DHT22;5555;59.622;16.556;2023-05-18T08:33:39;11.70;91.40
11005;DHT22;5555;59.622;16.556;2023-05-18T08:36:06;11.80;91.50
11005;DHT22;5555;59.622;16.556;2023-05-18T08:38:32;12.10;91.00
11005;DHT22;5555;59.622;16.556;2023-05-18T08:43:41;11.80;92.70
11005;DHT22;5555;59.622;16.556;2023-05-18T08:46:36;11.90;91.10
11005;DHT22;5555;59.622;16.556;2023-05-18T08:49:04;12.00;91.00
11005;DHT22;5555;59.622;16.556;2023-05-18T08:51:33;12.10;91.00
11005;DHT22;5555;59.622;16.556;2023-05-18T08:54:00;12.10;88.70
11005;DHT22;5555;59.622;16.556;2023-05-18T08:56:30;12.20;89.10
11005;DHT22;5555;59.622;16.556;2023-05-18T08:58:57;12.40;87.50
11005;DHT22;5555;59.622;16.556;2023-05-18T09:01:26;12.30;88.40
11005;DHT22;5555;59.622;16.556;2023-05-18T09:03:56;12.50;89.40
11005;DHT22;5555;59.622;16.556;2023-05-18T09:06:23;12.70;85.70
11005;DHT22;5555;59.622;16.556;2023-05-18T09:08:55;12.60;88.80
11005;DHT22;5555;59.622;16.556;2023-05-18T09:11:24;13.00;89.80
11005;DHT22;5555;59.622;16.556;2023-05-18T09:13:50;13.00;87.50
11005;DHT22;5555;59.622;16.556;2023-05-18T09:16:17;13.30;89.50
11005;DHT22;5555;59.622;16.556;2023-05-18T09:18:42;13.30;87.30
11005;DHT22;5555;59.622;16.556;2023-05-18T09:21:08;13.10;85.60
11005;DHT22;5555;59.622;16.556;2023-05-18T09:23:36;13.40;85.90
11005;DHT22;5555;59.622;16.556;2023-05-18T09:26:02;13.60;83.70
11005;DHT22;5555;59.622;16.556;2023-05-18T09:28:34;13.30;85.00
11005;DHT22;5555;59.622;16.556;2023-05-18T09:31:00;13.40;85.50
11005;DHT22;5555;59.622;16.556;2023-05-18T09:33:32;13.70;84.80
11005;DHT22;5555;59.622;16.556;2023-05-18T09:35:58;13.90;85.90
11005;DHT22;5555;59.622;16.556;2023-05-18T09:38:24;13.50;81.70
11005;DHT22;5555;59.622;16.556;2023-05-18T09:40:49;13.60;82.90
11005;DHT22;5555;59.622;16.556;2023-05-18T09:43:16;13.60;86.00
11005;DHT22;5555;59.622;16.556;2023-05-18T09:45:45;13.40;82.90
11005;DHT22;5555;59.622;16.556;2023-05-18T09:48:12;13.80;83.40
11005;DHT22;5555;59.622;16.556;2023-05-18T09:50:37;14.10;84.00
11005;DHT22;5555;59.622;16.556;2023-05-18T09:53:07;14.00;82.70
11005;DHT22;5555;59.622;16.556;2023-05-18T09:55:36;13.70;86.60
11005;DHT22;5555;59.622;16.556;2023-05-18T09:58:03;13.50;83.20
11005;DHT22;5555;59.622;16.556;2023-05-18T10:00:32;13.80;83.50
11005;DHT22;5555;59.622;16.556;2023-05-18T10:03:01;14.10;86.00
11005;DHT22;5555;59.622;16.556;2023-05-18T10:05:28;14.30;86.90
11005;DHT22;5555;59.622;16.556;2023-05-18T10:07:58;14.10;81.50
11005;DHT22;5555;59.622;16.556;2023-05-18T10:10:26;14.40;81.00
11005;DHT22;5555;59.622;16.556;2023-05-18T10:12:53;14.40;81.30
11005;DHT22;5555;59.622;16.556;2023-05-18T10:15:22;14.50;82.80
11005;DHT22;5555;59.622;16.556;2023-05-18T10:17:50;14.50;83.60
11005;DHT22;5555;59.622;16.556;2023-05-18T10:20:21;14.50;80.20
11005;DHT22;5555;59.622;16.556;2023-05-18T10:22:51;14.30;81.60
11005;DHT22;5555;59.622;16.556;2023-05-18T10:25:20;14.70;84.30
11005;DHT22;5555;59.622;16.556;2023-05-18T10:27:48;14.80;80.70
11005;DHT22;5555;59.622;16.556;2023-05-18T10:30:14;15.00;82.40
11005;DHT22;5555;59.622;16.556;2023-05-18T10:32:42;15.20;80.10
11005;DHT22;5555;59.622;16.556;2023-05-18T10:35:09;15.10;80.30
11005;DHT22;5555;59.622;16.556;2023-05-18T10:37:38;15.00;78.50
11005;DHT22;5555;59.622;16.556;2023-05-18T10:40:06;15.40;79.90
11005;DHT22;5555;59.622;16.556;2023-05-18T10:42:34;15.70;79.60
11005;DHT22;5555;59.622;16.556;2023-05-18T10:45:00;15.40;80.80
11005;DHT22;5555;59.622;16.556;2023-05-18T10:47:27;15.20;75.60
11005;DHT22;5555;59.622;16.556;2023-05-18T10:49:53;15.10;76.90
11005;DHT22;5555;59.622;16.556;2023-05-18T10:52:19;14.90;80.20
11005;DHT22;5555;59.622;16.556;2023-05-18T10:54:46;15.10;82.80
11005;DHT22;5555;59.622;16.556;2023-05-18T10:57:17;15.40;82.20
11005;DHT22;5555;59.622;16.556;2023-05-18T10:59:45;15.60;76.90
11005;DHT22;5555;59.622;16.556;2023-05-18T11:02:14;15.70;77.00
11005;DHT22;5555;59.622;16.556;2023-05-18T11:04:40;16.10;78.00
11005;DHT22;5555;59.622;16.556;2023-05-18T11:07:10;15.90;75.90
11005;DHT22;5555;59.622;16.556;2023-05-18T11:09:40;15.70;78.00
11005;DHT22;5555;59.622;16.556;2023-05-18T11:12:14;15.30;76.20
11005;DHT22;5555;59.622;16.556;2023-05-18T11:14:51;15.20;77.00
11005;DHT22;5555;59.622;16.556;2023-05-18T11:17:25;15.10;76.80
11005;DHT22;5555;59.622;16.556;2023-05-18T11:27:49;16.50;78.00
11005;DHT22;5555;59.622;16.556;2023-05-18T11:30:29;16.80;73.30
11005;DHT22;5555;59.622;16.556;2023-05-18T11:33:14;17.20;73.80
11005;DHT22;5555;59.622;16.556;2023-05-18T11:36:05;17.80;73.50
11005;DHT22;5555;59.622;16.556;2023-05-18T11:38:51;17.80;71.70
11005;DHT22;5555;59.622;16.556;2023-05-18T11:41:37;18.00;72.60
11005;DHT22;5555;59.622;16.556;2023-05-18T11:49:18;18.90;69.20
11005;DHT22;5555;59.622;16.556;2023-05-18T11:52:08;18.40;68.50
11005;DHT22;5555;59.622;16.556;2023-05-18T11:54:45;17.90;70.00
11005;DHT22;5555;59.622;16.556;2023-05-18T11:57:14;17.70;71.70
11005;DHT22;5555;59.622;16.556;2023-05-18T11:59:45;18.10;71.40
11005;DHT22;5555;59.622;16.556;2023-05-18T12:02:19;18.50;69.90
11005;DHT22;5555;59.622;16.556;2023-05-18T12:04:47;18.80;70.40
11005;DHT22;5555;59.622;16.556;2023-05-18T12:07:16;19.00;69.70
11005;DHT22;5555;59.622;16.556;2023-05-18T12:09:44;19.70;74.30
11005;DHT22;5555;59.622;16.556;2023-05-18T12:12:10;19.00;68.90
11005;DHT22;5555;59.622;16.556;2023-05-18T12:14:53;19.40;68.20
11005;DHT22;5555;59.622;16.556;2023-05-18T12:17:19;19.70;69.10
11005;DHT22;5555;59.622;16.556;2023-05-18T12:19:47;19.40;68.40
11005;DHT22;5555;59.622;16.556;2023-05-18T12:22:13;19.70;67.60
11005;DHT22;5555;59.622;16.556;2023-05-18T12:24:41;19.00;68.20
11005;DHT22;5555;59.622;16.556;2023-05-18T12:27:08;19.20;69.70
11005;DHT22;5555;59.622;16.556;2023-05-18T12:29:37;19.00;69.90
11005;DHT22;5555;59.622;16.556;2023-05-18T12:32:11;19.60;76.50
11005;DHT22;5555;59.622;16.556;2023-05-18T12:34:38;19.80;69.70
11005;DHT22;5555;59.622;16.556;2023-05-18T12:37:05;20.40;69.60
11005;DHT22;5555;59.622;16.556;2023-05-18T12:39:31;20.80;70.80
11005;DHT22;5555;59.622;16.556;2023-05-18T12:42:23;20.70;72.00
11005;DHT22;5555;59.622;16.556;2023-05-18T12:44:49;22.00;68.00
11005;DHT22;5555;59.622;16.556;2023-05-18T12:47:15;22.10;73.60
11005;DHT22;5555;59.622;16.556;2023-05-18T12:49:46;21.70;66.70
11005;DHT22;5555;59.622;16.556;2023-05-18T12:52:14;22.60;66.20
11005;DHT22;5555;59.622;16.556;2023-05-18T12:54:54;22.20;64.80
11005;DHT22;5555;59.622;16.556;2023-05-18T12:57:23;22.70;61.80
11005;DHT22;5555;59.622;16.556;2023-05-18T12:59:52;22.60;61.50
11005;DHT22;5555;59.622;16.556;2023-05-18T13:02:34;21.50;60.40
11005;DHT22;5555;59.622;16.556;2023-05-18T13:05:08;21.20;62.60
11005;DHT22;5555;59.622;16.556;2023-05-18T13:07:38;21.60;61.80
11005;DHT22;5555;59.622;16.556;2023-05-18T13:10:14;21.20;62.80
11005;DHT22;5555;59.622;16.556;2023-05-18T13:12:47;23.10;60.40
11005;DHT22;5555;59.622;16.556;2023-05-18T13:15:16;23.50;61.10
11005;DHT22;5555;59.622;16.556;2023-05-18T13:17:57;23.70;58.80
11005;DHT22;5555;59.622;16.556;2023-05-18T13:20:36;23.40;63.90
11005;DHT22;5555;59.622;16.556;2023-05-18T13:23:12;22.80;60.70
11005;DHT22;5555;59.622;16.556;2023-05-18T13:25:38;22.50;63.20
11005;DHT22;5555;59.622;16.556;2023-05-18T13:28:05;22.90;60.30
11005;DHT22;5555;59.622;16.556;2023-05-18T13:30:31;23.80;62.90
11005;DHT22;5555;59.622;16.556;2023-05-18T13:32:58;24.20;62.00
11005;DHT22;5555;59.622;16.556;2023-05-18T13:35:24;24.20;58.20
11005;DHT22;5555;59.622;16.556;2023-05-18T13:37:50;24.70;59.00
11005;DHT22;5555;59.622;16.556;2023-05-18T13:40:17;23.70;56.30
11005;DHT22;5555;59.622;16.556;2023-05-18T13:42:44;22.80;58.30
11005;DHT22;5555;59.622;16.556;2023-05-18T13:45:11;23.10;64.00
11005;DHT22;5555;59.622;16.556;2023-05-18T13:47:37;23.10;57.70
11005;DHT22;5555;59.622;16.556;2023-05-18T13:50:05;22.00;57.70
11005;DHT22;5555;59.622;16.556;2023-05-18T13:52:31;22.30;58.90
11005;DHT22;5555;59.622;16.556;2023-05-18T13:54:57;22.20;59.80
11005;DHT22;5555;59.622;16.556;2023-05-18T13:57:23;23.00;58.90
11005;DHT22;5555;59.622;16.556;2023-05-18T13:59:51;23.30;57.90
11005;DHT22;5555;59.622;16.556;2023-05-18T14:02:17;23.50;59.50
11005;DHT22;5555;59.622;16.556;2023-05-18T14:04:43;24.60;58.10
11005;DHT22;5555;59.622;16.556;2023-05-18T14:07:08;24.70;56.90
11005;DHT22;5555;59.622;16.556;2023-05-18T14:09:35;25.10;57.20
11005;DHT22;5555;59.622;16.556;2023-05-18T14:12:01;26.00;55.60
11005;DHT22;5555;59.622;16.556;2023-05-18T14:14:29;24.50;54.90
11005;DHT22;5555;59.622;16.556;2023-05-18T14:16:55;24.00;54.90
11005;DHT22;5555;59.622;16.556;2023-05-18T14:19:20;23.20;55.00
11005;DHT22;5555;59.622;16.556;2023-05-18T14:21:46;23.30;54.10
11005;DHT22;5555;59.622;16.556;2023-05-18T14:24:12;23.90;57.00
11005;DHT22;5555;59.622;16.556;2023-05-18T14:26:39;24.10;54.20
11005;DHT22;5555;59.622;16.556;2023-05-18T14:29:05;24.50;54.10
11005;DHT22;5555;59.622;16.556;2023-05-18T14:31:31;23.80;56.50
11005;DHT22;5555;59.622;16.556;2023-05-18T14:33:56;24.40;53.50
11005;DHT22;5555;59.622;16.556;2023-05-18T14:36:22;23.10;55.20
11005;DHT22;5555;59.622;16.556;2023-05-18T14:38:48;23.20;57.90
11005;DHT22;5555;59.622;16.556;2023-05-18T14:41:13;24.30;54.00
11005;DHT22;5555;59.622;16.556;2023-05-18T14:43:39;24.50;53.60
11005;DHT22;5555;59.622;16.556;2023-05-18T14:46:05;25.40;52.60
11005;DHT22;5555;59.622;16.556;2023-05-18T14:48:30;25.50;52.90
11005;DHT22;5555;59.622;16.556;2023-05-18T14:50:56;25.10;53.10
11005;DHT22;5555;59.622;16.556;2023-05-18T14:53:21;25.40;52.10
11005;DHT22;5555;59.622;16.556;2023-05-18T14:55:47;25.20;53.50
11005;DHT22;5555;59.622;16.556;2023-05-18T14:58:13;25.20;54.30
11005;DHT22;5555;59.622;16.556;2023-05-18T15:00:42;25.30;53.60
11005;DHT22;5555;59.622;16.556;2023-05-18T15:03:08;25.80;53.80
11005;DHT22;5555;59.622;16.556;2023-05-18T15:05:34;26.10;52.80
11005;DHT22;5555;59.622;16.556;2023-05-18T15:08:00;25.80;53.60
11005;DHT22;5555;59.622;16.556;2023-05-18T15:10:26;26.30;54.70
11005;DHT22;5555;59.622;16.556;2023-05-18T15:12:51;26.10;54.10
11005;DHT22;5555;59.622;16.556;2023-05-18T15:15:17;26.80;52.90
11005;DHT22;5555;59.622;16.556;2023-05-18T15:17:43;26.60;50.80
11005;DHT22;5555;59.622;16.556;2023-05-18T15:20:09;26.90;51.40
11005;DHT22;5555;59.622;16.556;2023-05-18T15:22:35;26.40;52.60
11005;DHT22;5555;59.622;16.556;2023-05-18T15:25:05;26.50;50.20
11005;DHT22;5555;59.622;16.556;2023-05-18T15:27:36;26.10;50.60
11005;DHT22;5555;59.622;16.556;2023-05-18T15:30:02;25.80;51.80
11005;DHT22;5555;59.622;16.556;2023-05-18T15:32:31;25.20;53.60
11005;DHT22;5555;59.622;16.556;2023-05-18T15:34:56;25.40;53.10
11005;DHT22;5555;59.622;16.556;2023-05-18T15:37:23;25.90;52.20
11005;DHT22;5555;59.622;16.556;2023-05-18T15:39:48;25.30;52.20
11005;DHT22;5555;59.622;16.556;2023-05-18T15:42:14;25.60;51.60
11005;DHT22;5555;59.622;16.556;2023-05-18T15:44:40;25.50;52.30
11005;DHT22;5555;59.622;16.556;2023-05-18T15:47:05;26.10;51.20
11005;DHT22;5555;59.622;16.556;2023-05-18T15:49:31;25.70;50.90
11005;DHT22;5555;59.622;16.556;2023-05-18T15:51:57;25.40;51.40
11005;DHT22;5555;59.622;16.556;2023-05-18T15:54:22;24.90;51.00
11005;DHT22;5555;59.622;16.556;2023-05-18T15:56:48;25.10;52.60
11005;DHT22;5555;59.622;16.556;2023-05-18T15:59:14;25.50;52.50
11005;DHT22;5555;59.622;16.556;2023-05-18T16:01:40;25.60;50.50
11005;DHT22;5555;59.622;16.556;2023-05-18T16:04:05;25.40;51.00
11005;DHT22;5555;59.622;16.556;2023-05-18T16:06:32;25.20;52.40